sensor_id;sensor_type;location;lat;lon;timestamp;P1;durP1;ratioP1;P2;durP2;ratioP2
16352;SDS011;8286;51.274;9.542;2023-06-10T00:00:00;8.82;;;7.38;;
16352;SDS011;8286;51.274;9.542;2023-06-10T00:02:31;12.30;;;7.47;;
16352;SDS011;8286;51.274;9.542;2023-06-10T00:04:58;10.95;;;8.10;;
16352;SDS011;8286;51.274;9.542;2023-06-10T00:07:24;11.43;;;7.78;;
16352;SDS011;8286;51.274;9.542;2023-06-10T00:09:51;7.95;;;7.15;;
16352;SDS011;8286;51.274;9.542;2023-06-10T00:12:17;9.95;;;7.57;;
16352;SDS011;8286;51.274;9.542;2023-06-10T00:14:45;9.68;;;7.15;;
16352;SDS011;8286;51.274;9.542;2023-06-10T00:17:13;10.93;;;7.75;;
16352;SDS011;8286;51.274;9.542;2023-06-10T00:19:41;9.88;;;7.35;;
16352;SDS011;8286;51.274;9.542;2023-06-10T00:22:08;8.90;;;7.30;;
16352;SDS011;8286;51.274;9.542;2023-06-10T00:24:35;12.88;;;8.13;;
16352;SDS011;8286;51.274;9.542;2023-06-10T00:27:02;8.70;;;7.13;;
16352;SDS011;8286;51.274;9.542;2023-06-10T00:29:30;9.10;;;7.13;;
16352;SDS011;8286;51.274;9.542;2023-06-10T00:31:56;9.45;;;7.13;;
16352;SDS011;8286;51.274;9.542;2023-06-10T00:34:23;9.65;;;6.60;;
16352;SDS011;8286;51.274;9.542;2023-06-10T00:36:51;8.60;;;6.53;;
16352;SDS011;8286;51.274;9.542;2023-06-10T00:39:17;8.70;;;7.18;;
16352;SDS011;8286;51.274;9.542;2023-06-10T00:41:44;10.45;;;6.63;;
16352;SDS011;8286;51.274;9.542;2023-06-10T00:44:10;10.05;;;6.75;;
16352;SDS011;8286;51.274;9.542;2023-06-10T00:46:37;10.15;;;6.63;;
16352;SDS011;8286;51.274;9.542;2023-06-10T00:49:03;8.48;;;6.75;;
16352;SDS011;8286;51.274;9.542;2023-06-10T00:51:31;8.98;;;7.00;;
16352;SDS011;8286;51.274;9.542;2023-06-10T00:53:58;6.82;;;6.13;;
16352;SDS011;8286;51.274;9.542;2023-06-10T00:56:25;8.80;;;6.93;;
16352;SDS011;8286;51.274;9.542;2023-06-10T00:58:51;10.60;;;7.32;;
16352;SDS011;8286;51.274;9.542;2023-06-10T01:01:18;9.10;;;6.57;;
16352;SDS011;8286;51.274;9.542;2023-06-10T01:03:45;9.10;;;6.53;;
16352;SDS011;8286;51.274;9.542;2023-06-10T01:06:14;10.73;;;6.90;;
16352;SDS011;8286;51.274;9.542;2023-06-10T01:08:46;11.10;;;6.57;;
16352;SDS011;8286;51.274;9.542;2023-06-10T01:11:21;8.27;;;6.30;;
16352;SDS011;8286;51.274;9.542;2023-06-10T01:13:50;6.95;;;6.05;;
16352;SDS011;8286;51.274;9.542;2023-06-10T01:16:17;8.73;;;6.25;;
16352;SDS011;8286;51.274;9.542;2023-06-10T01:18:43;8.68;;;6.40;;
16352;SDS011;8286;51.274;9.542;2023-06-10T01:21:15;8.40;;;6.20;;
16352;SDS011;8286;51.274;9.542;2023-06-10T01:23:45;8.45;;;6.50;;
16352;SDS011;8286;51.274;9.542;2023-06-10T01:26:12;8.27;;;6.18;;
16352;SDS011;8286;51.274;9.542;2023-06-10T01:28:40;7.15;;;6.32;;
16352;SDS011;8286;51.274;9.542;2023-06-10T01:31:13;7.05;;;6.32;;
16352;SDS011;8286;51.274;9.542;2023-06-10T01:33:43;8.50;;;6.32;;
16352;SDS011;8286;51.274;9.542;2023-06-10T01:36:13;10.68;;;6.13;;
16352;SDS011;8286;51.274;9.542;2023-06-10T01:38:42;11.60;;;6.20;;
16352;SDS011;8286;51.274;9.542;2023-06-10T01:41:10;7.68;;;6.68;;
16352;SDS011;8286;51.274;9.542;2023-06-10T01:43:37;8.98;;;5.93;;
16352;SDS011;8286;51.274;9.542;2023-06-10T01:46:04;10.05;;;6.28;;
16352;SDS011;8286;51.274;9.542;2023-06-10T01:48:31;9.95;;;5.97;;
16352;SDS011;8286;51.274;9.542;2023-06-10T01:50:57;9.88;;;6.28;;
16352;SDS011;8286;51.274;9.542;2023-06-10T01:53:25;8.03;;;6.20;;
16352;SDS011;8286;51.274;9.542;2023-06-10T01:55:52;6.82;;;5.65;;
16352;SDS011;8286;51.274;9.542;2023-06-10T01:58:18;9.52;;;6.20;;
16352;SDS011;8286;51.274;9.542;2023-06-10T02:00:45;7.80;;;6.20;;
16352;SDS011;8286;51.274;9.542;2023-06-10T02:03:11;11.23;;;6.07;;
16352;SDS011;8286;51.274;9.542;2023-06-10T02:05:38;6.38;;;5.78;;
16352;SDS011;8286;51.274;9.542;2023-06-10T02:08:05;6.77;;;5.70;;
16352;SDS011;8286;51.274;9.542;2023-06-10T02:10:33;7.00;;;5.27;;
16352;SDS011;8286;51.274;9.542;2023-06-10T02:12:59;8.80;;;5.67;;
16352;SDS011;8286;51.274;9.542;2023-06-10T02:15:26;7.73;;;5.67;;
16352;SDS011;8286;51.274;9.542;2023-06-10T02:17:52;6.90;;;5.70;;
16352;SDS011;8286;51.274;9.542;2023-06-10T02:20:19;9.03;;;6.17;;
16352;SDS011;8286;51.274;9.542;2023-06-10T02:22:46;8.10;;;5.45;;
16352;SDS011;8286;51.274;9.542;2023-06-10T02:25:12;9.40;;;5.57;;
16352;SDS011;8286;51.274;9.542;2023-06-10T02:27:40;11.03;;;5.77;;
16352;SDS011;8286;51.274;9.542;2023-06-10T02:30:07;6.90;;;5.67;;
16352;SDS011;8286;51.274;9.542;2023-06-10T02:32:35;7.47;;;5.87;;
16352;SDS011;8286;51.274;9.542;2023-06-10T02:35:02;7.40;;;5.80;;
16352;SDS011;8286;51.274;9.542;2023-06-10T02:37:28;7.73;;;6.13;;
16352;SDS011;8286;51.274;9.542;2023-06-10T02:39:55;7.73;;;5.47;;
16352;SDS011;8286;51.274;9.542;2023-06-10T02:42:21;9.80;;;5.10;;
16352;SDS011;8286;51.274;9.542;2023-06-10T02:44:49;6.97;;;5.53;;
16352;SDS011;8286;51.274;9.542;2023-06-10T02:47:16;7.47;;;5.67;;
16352;SDS011;8286;51.274;9.542;2023-06-10T02:49:42;8.00;;;5.27;;
16352;SDS011;8286;51.274;9.542;2023-06-10T02:52:09;8.48;;;5.07;;
16352;SDS011;8286;51.274;9.542;2023-06-10T02:54:36;6.20;;;5.40;;
16352;SDS011;8286;51.274;9.542;2023-06-10T02:57:03;8.37;;;5.70;;
16352;SDS011;8286;51.274;9.542;2023-06-10T02:59:30;8.57;;;5.60;;
16352;SDS011;8286;51.274;9.542;2023-06-10T03:01:58;6.33;;;5.63;;
16352;SDS011;8286;51.274;9.542;2023-06-10T03:04:26;7.07;;;5.77;;
16352;SDS011;8286;51.274;9.542;2023-06-10T03:06:54;8.70;;;5.93;;
16352;SDS011;8286;51.274;9.542;2023-06-10T03:09:21;7.03;;;5.20;;
16352;SDS011;8286;51.274;9.542;2023-06-10T03:11:47;7.55;;;5.28;;
16352;SDS011;8286;51.274;9.542;2023-06-10T03:14:14;7.03;;;5.77;;
16352;SDS011;8286;51.274;9.542;2023-06-10T03:16:40;7.07;;;5.77;;
16352;SDS011;8286;51.274;9.542;2023-06-10T03:19:09;6.97;;;5.20;;
16352;SDS011;8286;51.274;9.542;2023-06-10T03:21:35;12.70;;;5.80;;
16352;SDS011;8286;51.274;9.542;2023-06-10T03:24:02;7.33;;;4.83;;
16352;SDS011;8286;51.274;9.542;2023-06-10T03:26:29;5.97;;;5.37;;
16352;SDS011;8286;51.274;9.542;2023-06-10T03:28:55;6.83;;;5.17;;
16352;SDS011;8286;51.274;9.542;2023-06-10T03:31:22;6.87;;;5.23;;
16352;SDS011;8286;51.274;9.542;2023-06-10T03:33:49;6.27;;;5.43;;
16352;SDS011;8286;51.274;9.542;2023-06-10T03:36:17;7.27;;;5.10;;
16352;SDS011;8286;51.274;9.542;2023-06-10T03:38:44;7.47;;;5.57;;
16352;SDS011;8286;51.274;9.542;2023-06-10T03:41:10;10.47;;;4.97;;
16352;SDS011;8286;51.274;9.542;2023-06-10T03:43:37;6.63;;;5.57;;
16352;SDS011;8286;51.274;9.542;2023-06-10T03:46:03;9.30;;;5.50;;
16352;SDS011;8286;51.274;9.542;2023-06-10T03:48:30;6.57;;;5.03;;
16352;SDS011;8286;51.274;9.542;2023-06-10T03:50:56;8.07;;;5.32;;
16352;SDS011;8286;51.274;9.542;2023-06-10T03:53:24;5.45;;;4.70;;
16352;SDS011;8286;51.274;9.542;2023-06-10T03:55:51;5.82;;;4.90;;
16352;SDS011;8286;51.274;9.542;2023-06-10T03:58:17;5.60;;;5.10;;
16352;SDS011;8286;51.274;9.542;2023-06-10T04:00:44;5.40;;;4.90;;
16352;SDS011;8286;51.274;9.542;2023-06-10T04:03:12;6.28;;;4.85;;
16352;SDS011;8286;51.274;9.542;2023-06-10T04:05:39;9.52;;;5.50;;
16352;SDS011;8286;51.274;9.542;2023-06-10T04:08:06;5.80;;;5.13;;
16352;SDS011;8286;51.274;9.542;2023-06-10T04:10:34;6.27;;;5.13;;
16352;SDS011;8286;51.274;9.542;2023-06-10T04:13:01;7.20;;;5.57;;
16352;SDS011;8286;51.274;9.542;2023-06-10T04:15:28;7.77;;;5.33;;
16352;SDS011;8286;51.274;9.542;2023-06-10T04:17:57;6.93;;;5.07;;
16352;SDS011;8286;51.274;9.542;2023-06-10T04:20:24;7.30;;;5.27;;
16352;SDS011;8286;51.274;9.542;2023-06-10T04:22:51;6.77;;;5.30;;
16352;SDS011;8286;51.274;9.542;2023-06-10T04:25:18;6.38;;;5.10;;
16352;SDS011;8286;51.274;9.542;2023-06-10T04:27:46;6.32;;;4.68;;
16352;SDS011;8286;51.274;9.542;2023-06-10T04:30:13;5.65;;;4.95;;
16352;SDS011;8286;51.274;9.542;2023-06-10T04:32:40;8.70;;;4.68;;
16352;SDS011;8286;51.274;9.542;2023-06-10T04:35:07;7.05;;;4.72;;
16352;SDS011;8286;51.274;9.542;2023-06-10T04:37:34;5.38;;;4.45;;
16352;SDS011;8286;51.274;9.542;2023-06-10T04:40:00;5.88;;;4.45;;
16352;SDS011;8286;51.274;9.542;2023-06-10T04:42:28;8.40;;;4.20;;
16352;SDS011;8286;51.274;9.542;2023-06-10T04:44:56;5.38;;;4.25;;
16352;SDS011;8286;51.274;9.542;2023-06-10T04:47:23;7.15;;;4.60;;
16352;SDS011;8286;51.274;9.542;2023-06-10T04:49:49;7.68;;;4.50;;
16352;SDS011;8286;51.274;9.542;2023-06-10T04:52:16;5.47;;;4.30;;
16352;SDS011;8286;51.274;9.542;2023-06-10T04:54:43;5.15;;;4.13;;
16352;SDS011;8286;51.274;9.542;2023-06-10T04:57:09;6.65;;;4.10;;
16352;SDS011;8286;51.274;9.542;2023-06-10T04:59:36;5.82;;;4.63;;
16352;SDS011;8286;51.274;9.542;2023-06-10T05:02:04;6.10;;;4.18;;
16352;SDS011;8286;51.274;9.542;2023-06-10T05:04:31;4.82;;;4.07;;
16352;SDS011;8286;51.274;9.542;2023-06-10T05:06:58;5.63;;;4.35;;
16352;SDS011;8286;51.274;9.542;2023-06-10T05:09:24;4.60;;;3.55;;
16352;SDS011;8286;51.274;9.542;2023-06-10T05:11:51;4.82;;;4.22;;
16352;SDS011;8286;51.274;9.542;2023-06-10T05:14:19;11.55;;;3.90;;
16352;SDS011;8286;51.274;9.542;2023-06-10T05:16:45;6.05;;;3.90;;
16352;SDS011;8286;51.274;9.542;2023-06-10T05:19:13;3.88;;;3.50;;
16352;SDS011;8286;51.274;9.542;2023-06-10T05:21:41;5.00;;;4.03;;
16352;SDS011;8286;51.274;9.542;2023-06-10T05:24:07;4.72;;;3.55;;
16352;SDS011;8286;51.274;9.542;2023-06-10T05:26:35;4.05;;;3.75;;
16352;SDS011;8286;51.274;9.542;2023-06-10T05:29:03;4.22;;;3.80;;
16352;SDS011;8286;51.274;9.542;2023-06-10T05:31:29;4.00;;;3.65;;
16352;SDS011;8286;51.274;9.542;2023-06-10T05:33:56;6.95;;;3.47;;
16352;SDS011;8286;51.274;9.542;2023-06-10T05:36:24;4.75;;;3.90;;
16352;SDS011;8286;51.274;9.542;2023-06-10T05:38:51;5.13;;;4.03;;
16352;SDS011;8286;51.274;9.542;2023-06-10T05:41:18;5.45;;;3.65;;
16352;SDS011;8286;51.274;9.542;2023-06-10T05:43:45;5.72;;;3.47;;
16352;SDS011;8286;51.274;9.542;2023-06-10T05:46:11;4.72;;;3.78;;
16352;SDS011;8286;51.274;9.542;2023-06-10T05:48:38;4.00;;;3.60;;
16352;SDS011;8286;51.274;9.542;2023-06-10T05:51:04;6.53;;;3.20;;
16352;SDS011;8286;51.274;9.542;2023-06-10T05:53:32;3.70;;;3.40;;
16352;SDS011;8286;51.274;9.542;2023-06-10T05:55:59;4.28;;;3.45;;
16352;SDS011;8286;51.274;9.542;2023-06-10T05:58:25;6.43;;;3.58;;
16352;SDS011;8286;51.274;9.542;2023-06-10T06:00:52;6.07;;;4.10;;
16352;SDS011;8286;51.274;9.542;2023-06-10T06:03:18;4.57;;;3.35;;
16352;SDS011;8286;51.274;9.542;2023-06-10T06:05:45;3.42;;;3.13;;
16352;SDS011;8286;51.274;9.542;2023-06-10T06:08:11;6.82;;;3.85;;
16352;SDS011;8286;51.274;9.542;2023-06-10T06:10:43;3.45;;;3.25;;
16352;SDS011;8286;51.274;9.542;2023-06-10T06:13:10;5.55;;;3.90;;
16352;SDS011;8286;51.274;9.542;2023-06-10T06:15:37;3.58;;;3.33;;
16352;SDS011;8286;51.274;9.542;2023-06-10T06:18:03;5.13;;;3.22;;
16352;SDS011;8286;51.274;9.542;2023-06-10T06:20:30;4.13;;;3.63;;
16352;SDS011;8286;51.274;9.542;2023-06-10T06:22:56;3.92;;;3.58;;
16352;SDS011;8286;51.274;9.542;2023-06-10T06:25:23;6.53;;;3.40;;
16352;SDS011;8286;51.274;9.542;2023-06-10T06:27:50;5.43;;;3.90;;
16352;SDS011;8286;51.274;9.542;2023-06-10T06:30:17;3.55;;;3.25;;
16352;SDS011;8286;51.274;9.542;2023-06-10T06:32:44;3.92;;;3.50;;
16352;SDS011;8286;51.274;9.542;2023-06-10T06:35:11;4.25;;;3.85;;
16352;SDS011;8286;51.274;9.542;2023-06-10T06:37:37;4.90;;;3.53;;
16352;SDS011;8286;51.274;9.542;2023-06-10T06:40:04;3.75;;;3.53;;
16352;SDS011;8286;51.274;9.542;2023-06-10T06:42:31;4.00;;;3.42;;
16352;SDS011;8286;51.274;9.542;2023-06-10T06:44:59;4.65;;;3.58;;
16352;SDS011;8286;51.274;9.542;2023-06-10T06:47:26;4.07;;;3.47;;
16352;SDS011;8286;51.274;9.542;2023-06-10T06:49:52;4.15;;;3.25;;
16352;SDS011;8286;51.274;9.542;2023-06-10T06:52:19;4.72;;;3.60;;
16352;SDS011;8286;51.274;9.542;2023-06-10T06:54:47;4.60;;;3.55;;
16352;SDS011;8286;51.274;9.542;2023-06-10T06:57:13;3.65;;;3.35;;
16352;SDS011;8286;51.274;9.542;2023-06-10T06:59:40;3.30;;;3.10;;
16352;SDS011;8286;51.274;9.542;2023-06-10T07:02:08;3.45;;;3.15;;
16352;SDS011;8286;51.274;9.542;2023-06-10T07:04:34;5.03;;;3.50;;
16352;SDS011;8286;51.274;9.542;2023-06-10T07:07:01;3.70;;;3.17;;
16352;SDS011;8286;51.274;9.542;2023-06-10T07:09:28;4.13;;;3.75;;
16352;SDS011;8286;51.274;9.542;2023-06-10T07:11:54;3.67;;;3.35;;
16352;SDS011;8286;51.274;9.542;2023-06-10T07:14:21;3.97;;;3.50;;
16352;SDS011;8286;51.274;9.542;2023-06-10T07:16:47;5.00;;;3.33;;
16352;SDS011;8286;51.274;9.542;2023-06-10T07:19:16;4.05;;;3.75;;
16352;SDS011;8286;51.274;9.542;2023-06-10T07:21:42;4.32;;;3.40;;
16352;SDS011;8286;51.274;9.542;2023-06-10T07:24:09;3.78;;;3.47;;
16352;SDS011;8286;51.274;9.542;2023-06-10T07:26:35;4.55;;;3.78;;
16352;SDS011;8286;51.274;9.542;2023-06-10T07:29:02;5.25;;;3.65;;
16352;SDS011;8286;51.274;9.542;2023-06-10T07:31:28;3.95;;;3.03;;
16352;SDS011;8286;51.274;9.542;2023-06-10T07:33:55;4.30;;;3.45;;
16352;SDS011;8286;51.274;9.542;2023-06-10T07:36:23;5.13;;;3.28;;
16352;SDS011;8286;51.274;9.542;2023-06-10T07:38:52;4.10;;;3.40;;
16352;SDS011;8286;51.274;9.542;2023-06-10T07:41:18;5.50;;;4.18;;
16352;SDS011;8286;51.274;9.542;2023-06-10T07:43:45;3.78;;;3.38;;
16352;SDS011;8286;51.274;9.542;2023-06-10T07:46:12;4.38;;;3.80;;
16352;SDS011;8286;51.274;9.542;2023-06-10T07:48:38;4.50;;;4.10;;
16352;SDS011;8286;51.274;9.542;2023-06-10T07:51:05;4.85;;;3.90;;
16352;SDS011;8286;51.274;9.542;2023-06-10T07:53:32;7.43;;;3.75;;
16352;SDS011;8286;51.274;9.542;2023-06-10T07:55:59;4.15;;;3.85;;
16352;SDS011;8286;51.274;9.542;2023-06-10T07:58:25;4.00;;;3.58;;
16352;SDS011;8286;51.274;9.542;2023-06-10T08:00:52;4.03;;;3.50;;
16352;SDS011;8286;51.274;9.542;2023-06-10T08:03:19;4.63;;;3.90;;
16352;SDS011;8286;51.274;9.542;2023-06-10T08:05:46;4.38;;;3.97;;
16352;SDS011;8286;51.274;9.542;2023-06-10T08:08:13;5.93;;;3.92;;
16352;SDS011;8286;51.274;9.542;2023-06-10T08:10:41;4.28;;;3.70;;
16352;SDS011;8286;51.274;9.542;2023-06-10T08:13:08;4.78;;;3.83;;
16352;SDS011;8286;51.274;9.542;2023-06-10T08:15:35;4.22;;;3.88;;
16352;SDS011;8286;51.274;9.542;2023-06-10T08:18:01;5.03;;;4.38;;
16352;SDS011;8286;51.274;9.542;2023-06-10T08:20:28;4.93;;;4.15;;
16352;SDS011;8286;51.274;9.542;2023-06-10T08:22:54;5.72;;;5.13;;
16352;SDS011;8286;51.274;9.542;2023-06-10T08:25:21;6.50;;;4.63;;
16352;SDS011;8286;51.274;9.542;2023-06-10T08:27:49;6.63;;;6.00;;
16352;SDS011;8286;51.274;9.542;2023-06-10T08:30:17;6.97;;;5.57;;
16352;SDS011;8286;51.274;9.542;2023-06-10T08:32:44;5.55;;;4.88;;
16352;SDS011;8286;51.274;9.542;2023-06-10T08:35:10;8.60;;;5.38;;
16352;SDS011;8286;51.274;9.542;2023-06-10T08:37:37;5.80;;;4.90;;
16352;SDS011;8286;51.274;9.542;2023-06-10T08:40:03;5.93;;;4.22;;
16352;SDS011;8286;51.274;9.542;2023-06-10T08:42:33;4.80;;;4.25;;
16352;SDS011;8286;51.274;9.542;2023-06-10T08:45:02;6.30;;;4.30;;
16352;SDS011;8286;51.274;9.542;2023-06-10T08:47:30;5.30;;;4.80;;
16352;SDS011;8286;51.274;9.542;2023-06-10T08:50:01;7.72;;;4.35;;
16352;SDS011;8286;51.274;9.542;2023-06-10T08:52:33;5.25;;;4.75;;
16352;SDS011;8286;51.274;9.542;2023-06-10T08:55:02;11.48;;;4.68;;
16352;SDS011;8286;51.274;9.542;2023-06-10T08:57:30;8.48;;;5.00;;
16352;SDS011;8286;51.274;9.542;2023-06-10T08:59:57;5.50;;;4.68;;
16352;SDS011;8286;51.274;9.542;2023-06-10T09:02:25;4.72;;;4.32;;
16352;SDS011;8286;51.274;9.542;2023-06-10T09:04:53;6.80;;;4.90;;
16352;SDS011;8286;51.274;9.542;2023-06-10T09:07:22;8.48;;;5.13;;
16352;SDS011;8286;51.274;9.542;2023-06-10T09:09:49;8.15;;;5.18;;
16352;SDS011;8286;51.274;9.542;2023-06-10T09:12:18;12.30;;;5.30;;
16352;SDS011;8286;51.274;9.542;2023-06-10T09:14:45;4.95;;;4.47;;
16352;SDS011;8286;51.274;9.542;2023-06-10T09:17:12;4.47;;;4.10;;
16352;SDS011;8286;51.274;9.542;2023-06-10T09:19:39;8.52;;;4.70;;
16352;SDS011;8286;51.274;9.542;2023-06-10T09:22:06;6.32;;;4.40;;
16352;SDS011;8286;51.274;9.542;2023-06-10T09:24:33;7.40;;;5.15;;
16352;SDS011;8286;51.274;9.542;2023-06-10T09:27:03;5.68;;;5.05;;
16352;SDS011;8286;51.274;9.542;2023-06-10T09:29:30;6.65;;;4.50;;
16352;SDS011;8286;51.274;9.542;2023-06-10T09:31:56;6.90;;;5.03;;
16352;SDS011;8286;51.274;9.542;2023-06-10T09:34:24;6.00;;;4.80;;
16352;SDS011;8286;51.274;9.542;2023-06-10T09:36:52;5.30;;;4.80;;
16352;SDS011;8286;51.274;9.542;2023-06-10T09:39:20;6.85;;;4.57;;
16352;SDS011;8286;51.274;9.542;2023-06-10T09:41:47;9.60;;;4.88;;
16352;SDS011;8286;51.274;9.542;2023-06-10T09:44:14;6.13;;;4.38;;
16352;SDS011;8286;51.274;9.542;2023-06-10T09:46:41;5.45;;;4.95;;
16352;SDS011;8286;51.274;9.542;2023-06-10T09:49:08;7.82;;;4.60;;
16352;SDS011;8286;51.274;9.542;2023-06-10T09:51:35;8.18;;;5.00;;
16352;SDS011;8286;51.274;9.542;2023-06-10T09:54:03;5.28;;;4.47;;
16352;SDS011;8286;51.274;9.542;2023-06-10T09:56:33;6.97;;;4.38;;
16352;SDS011;8286;51.274;9.542;2023-06-10T09:59:00;5.70;;;5.07;;
16352;SDS011;8286;51.274;9.542;2023-06-10T10:01:27;7.88;;;4.78;;
16352;SDS011;8286;51.274;9.542;2023-06-10T10:03:54;5.65;;;5.05;;
16352;SDS011;8286;51.274;9.542;2023-06-10T10:06:21;6.38;;;4.60;;
16352;SDS011;8286;51.274;9.542;2023-06-10T10:08:48;5.20;;;4.30;;
16352;SDS011;8286;51.274;9.542;2023-06-10T10:11:17;5.53;;;4.97;;
16352;SDS011;8286;51.274;9.542;2023-06-10T10:13:46;5.15;;;4.50;;
16352;SDS011;8286;51.274;9.542;2023-06-10T10:16:14;5.10;;;4.65;;
16352;SDS011;8286;51.274;9.542;2023-06-10T10:18:43;4.93;;;4.53;;
16352;SDS011;8286;51.274;9.542;2023-06-10T10:21:12;5.95;;;4.47;;
16352;SDS011;8286;51.274;9.542;2023-06-10T10:23:40;4.85;;;4.45;;
16352;SDS011;8286;51.274;9.542;2023-06-10T10:26:14;5.32;;;4.45;;
16352;SDS011;8286;51.274;9.542;2023-06-10T10:28:55;6.97;;;5.05;;
16352;SDS011;8286;51.274;9.542;2023-06-10T10:31:24;5.22;;;4.72;;
16352;SDS011;8286;51.274;9.542;2023-06-10T10:33:54;5.88;;;4.15;;
16352;SDS011;8286;51.274;9.542;2023-06-10T10:36:24;5.50;;;5.00;;
16352;SDS011;8286;51.274;9.542;2023-06-10T10:38:51;5.60;;;4.60;;
16352;SDS011;8286;51.274;9.542;2023-06-10T10:41:18;5.60;;;4.70;;
16352;SDS011;8286;51.274;9.542;2023-06-10T10:43:47;5.68;;;5.05;;
16352;SDS011;8286;51.274;9.542;2023-06-10T10:46:14;4.97;;;4.32;;
16352;SDS011;8286;51.274;9.542;2023-06-10T10:48:42;5.22;;;4.88;;
16352;SDS011;8286;51.274;9.542;2023-06-10T10:51:09;6.53;;;5.03;;
16352;SDS011;8286;51.274;9.542;2023-06-10T10:53:37;5.32;;;4.93;;
16352;SDS011;8286;51.274;9.542;2023-06-10T10:56:04;6.05;;;4.88;;
16352;SDS011;8286;51.274;9.542;2023-06-10T10:58:31;5.65;;;5.00;;
16352;SDS011;8286;51.274;9.542;2023-06-10T11:00:59;6.55;;;4.18;;
16352;SDS011;8286;51.274;9.542;2023-06-10T11:03:27;5.03;;;4.68;;
16352;SDS011;8286;51.274;9.542;2023-06-10T11:05:54;5.28;;;4.78;;
16352;SDS011;8286;51.274;9.542;2023-06-10T11:11:18;6.15;;;5.55;;
16352;SDS011;8286;51.274;9.542;2023-06-10T11:13:57;5.63;;;5.07;;
16352;SDS011;8286;51.274;9.542;2023-06-10T11:16:27;5.28;;;4.78;;
16352;SDS011;8286;51.274;9.542;2023-06-10T11:18:54;6.55;;;5.15;;
16352;SDS011;8286;51.274;9.542;2023-06-10T11:21:22;7.38;;;5.18;;
16352;SDS011;8286;51.274;9.542;2023-06-10T11:23:49;5.70;;;5.20;;
16352;SDS011;8286;51.274;9.542;2023-06-10T11:26:17;5.15;;;4.75;;
16352;SDS011;8286;51.274;9.542;2023-06-10T11:29:05;6.70;;;5.30;;
16352;SDS011;8286;51.274;9.542;2023-06-10T11:31:37;7.88;;;5.15;;
16352;SDS011;8286;51.274;9.542;2023-06-10T11:34:09;5.57;;;4.85;;
16352;SDS011;8286;51.274;9.542;2023-06-10T11:36:37;5.78;;;5.30;;
16352;SDS011;8286;51.274;9.542;2023-06-10T11:39:05;5.45;;;4.90;;
16352;SDS011;8286;51.274;9.542;2023-06-10T11:41:32;6.28;;;5.53;;
16352;SDS011;8286;51.274;9.542;2023-06-10T11:44:00;5.13;;;4.72;;
16352;SDS011;8286;51.274;9.542;2023-06-10T11:46:28;5.45;;;4.97;;
16352;SDS011;8286;51.274;9.542;2023-06-10T11:48:56;5.93;;;5.43;;
16352;SDS011;8286;51.274;9.542;2023-06-10T11:51:24;5.43;;;4.93;;
16352;SDS011;8286;51.274;9.542;2023-06-10T11:53:52;8.95;;;5.47;;
16352;SDS011;8286;51.274;9.542;2023-06-10T11:56:19;5.72;;;4.82;;
16352;SDS011;8286;51.274;9.542;2023-06-10T11:58:46;6.20;;;5.57;;
16352;SDS011;8286;51.274;9.542;2023-06-10T12:01:19;5.53;;;4.97;;
16352;SDS011;8286;51.274;9.542;2023-06-10T12:03:47;6.00;;;4.90;;
16352;SDS011;8286;51.274;9.542;2023-06-10T12:06:14;5.57;;;5.07;;
16352;SDS011;8286;51.274;9.542;2023-06-10T12:08:41;6.15;;;5.03;;
16352;SDS011;8286;51.274;9.542;2023-06-10T12:11:08;5.20;;;4.80;;
16352;SDS011;8286;51.274;9.542;2023-06-10T12:13:35;5.70;;;5.15;;
16352;SDS011;8286;51.274;9.542;2023-06-10T12:16:08;7.60;;;5.00;;
16352;SDS011;8286;51.274;9.542;2023-06-10T12:18:34;5.70;;;5.18;;
16352;SDS011;8286;51.274;9.542;2023-06-10T12:21:01;6.40;;;5.13;;
16352;SDS011;8286;51.274;9.542;2023-06-10T12:23:30;4.65;;;4.25;;
16352;SDS011;8286;51.274;9.542;2023-06-10T12:25:57;5.13;;;4.72;;
16352;SDS011;8286;51.274;9.542;2023-06-10T12:28:26;4.53;;;4.13;;
16352;SDS011;8286;51.274;9.542;2023-06-10T12:31:05;5.28;;;4.78;;
16352;SDS011;8286;51.274;9.542;2023-06-10T12:33:32;9.43;;;4.63;;
16352;SDS011;8286;51.274;9.542;2023-06-10T12:35:58;4.68;;;4.25;;
16352;SDS011;8286;51.274;9.542;2023-06-10T12:38:25;4.60;;;4.20;;
16352;SDS011;8286;51.274;9.542;2023-06-10T12:40:54;5.63;;;4.40;;
16352;SDS011;8286;51.274;9.542;2023-06-10T12:43:22;5.90;;;4.18;;
16352;SDS011;8286;51.274;9.542;2023-06-10T12:45:48;5.55;;;4.60;;
16352;SDS011;8286;51.274;9.542;2023-06-10T12:48:19;4.82;;;4.43;;
16352;SDS011;8286;51.274;9.542;2023-06-10T12:50:50;4.55;;;4.15;;
16352;SDS011;8286;51.274;9.542;2023-06-10T12:53:18;4.78;;;4.38;;
16352;SDS011;8286;51.274;9.542;2023-06-10T12:55:45;5.03;;;4.63;;
16352;SDS011;8286;51.274;9.542;2023-06-10T12:58:13;4.90;;;4.38;;
16352;SDS011;8286;51.274;9.542;2023-06-10T13:00:40;4.93;;;4.43;;
16352;SDS011;8286;51.274;9.542;2023-06-10T13:03:07;4.82;;;4.30;;
16352;SDS011;8286;51.274;9.542;2023-06-10T13:05:34;4.78;;;4.20;;
16352;SDS011;8286;51.274;9.542;2023-06-10T13:08:02;5.15;;;4.10;;
16352;SDS011;8286;51.274;9.542;2023-06-10T13:10:29;6.72;;;3.92;;
16352;SDS011;8286;51.274;9.542;2023-06-10T13:12:56;6.53;;;4.43;;
16352;SDS011;8286;51.274;9.542;2023-06-10T13:15:23;7.60;;;4.35;;
16352;SDS011;8286;51.274;9.542;2023-06-10T13:17:51;3.97;;;3.58;;
16352;SDS011;8286;51.274;9.542;2023-06-10T13:20:18;6.50;;;3.95;;
16352;SDS011;8286;51.274;9.542;2023-06-10T13:22:45;4.72;;;3.97;;
16352;SDS011;8286;51.274;9.542;2023-06-10T13:25:12;4.35;;;3.95;;
16352;SDS011;8286;51.274;9.542;2023-06-10T13:27:39;4.82;;;3.83;;
16352;SDS011;8286;51.274;9.542;2023-06-10T13:30:07;4.68;;;4.25;;
16352;SDS011;8286;51.274;9.542;2023-06-10T13:32:36;6.50;;;3.75;;
16352;SDS011;8286;51.274;9.542;2023-06-10T13:35:03;8.68;;;4.05;;
16352;SDS011;8286;51.274;9.542;2023-06-10T13:37:30;8.13;;;3.85;;
16352;SDS011;8286;51.274;9.542;2023-06-10T13:39:58;7.20;;;5.05;;
16352;SDS011;8286;51.274;9.542;2023-06-10T13:42:25;4.72;;;4.32;;
16352;SDS011;8286;51.274;9.542;2023-06-10T13:44:54;4.55;;;4.25;;
16352;SDS011;8286;51.274;9.542;2023-06-10T13:47:21;4.30;;;4.00;;
16352;SDS011;8286;51.274;9.542;2023-06-10T13:49:49;4.90;;;4.38;;
16352;SDS011;8286;51.274;9.542;2023-06-10T13:52:16;7.35;;;4.35;;
16352;SDS011;8286;51.274;9.542;2023-06-10T13:54:43;4.53;;;3.63;;
16352;SDS011;8286;51.274;9.542;2023-06-10T13:57:09;3.97;;;3.67;;
16352;SDS011;8286;51.274;9.542;2023-06-10T13:59:36;4.57;;;4.07;;
16352;SDS011;8286;51.274;9.542;2023-06-10T14:02:03;3.70;;;3.40;;
16352;SDS011;8286;51.274;9.542;2023-06-10T14:04:29;3.90;;;3.60;;
16352;SDS011;8286;51.274;9.542;2023-06-10T14:06:57;4.80;;;3.70;;
16352;SDS011;8286;51.274;9.542;2023-06-10T14:09:24;5.55;;;3.75;;
16352;SDS011;8286;51.274;9.542;2023-06-10T14:11:50;4.10;;;3.70;;
16352;SDS011;8286;51.274;9.542;2023-06-10T14:14:17;4.60;;;3.65;;
16352;SDS011;8286;51.274;9.542;2023-06-10T14:16:44;3.65;;;3.45;;
16352;SDS011;8286;51.274;9.542;2023-06-10T14:19:10;4.07;;;3.50;;
16352;SDS011;8286;51.274;9.542;2023-06-10T14:21:37;4.20;;;3.90;;
16352;SDS011;8286;51.274;9.542;2023-06-10T14:24:05;5.57;;;4.00;;
16352;SDS011;8286;51.274;9.542;2023-06-10T14:26:32;4.53;;;4.10;;
16352;SDS011;8286;51.274;9.542;2023-06-10T14:28:58;6.05;;;4.10;;
16352;SDS011;8286;51.274;9.542;2023-06-10T14:31:25;4.55;;;4.10;;
16352;SDS011;8286;51.274;9.542;2023-06-10T14:33:51;4.25;;;3.88;;
16352;SDS011;8286;51.274;9.542;2023-06-10T14:36:18;4.38;;;3.92;;
16352;SDS011;8286;51.274;9.542;2023-06-10T14:38:44;4.57;;;3.78;;
16352;SDS011;8286;51.274;9.542;2023-06-10T14:41:13;5.35;;;4.10;;
16352;SDS011;8286;51.274;9.542;2023-06-10T14:43:40;6.40;;;4.10;;
16352;SDS011;8286;51.274;9.542;2023-06-10T14:46:06;5.70;;;3.97;;
16352;SDS011;8286;51.274;9.542;2023-06-10T14:48:33;4.78;;;4.35;;
16352;SDS011;8286;51.274;9.542;2023-06-10T14:51:00;7.95;;;4.20;;
16352;SDS011;8286;51.274;9.542;2023-06-10T14:53:27;5.13;;;4.63;;
16352;SDS011;8286;51.274;9.542;2023-06-10T14:55:53;4.43;;;4.03;;
16352;SDS011;8286;51.274;9.542;2023-06-10T14:58:21;4.70;;;4.07;;
16352;SDS011;8286;51.274;9.542;2023-06-10T15:00:48;4.63;;;4.25;;
16352;SDS011;8286;51.274;9.542;2023-06-10T15:03:15;4.40;;;4.10;;